createdAt,value
2022-10-28T00:00:51.127Z,1004.359863
2022-10-28T00:01:50.507Z,1004.386536
2022-10-28T00:02:46.208Z,1004.279663
2022-10-28T00:03:46.911Z,1004.33313
2022-10-28T00:04:41.984Z,1004.367798
2022-10-28T00:06:27.981Z,1004.208252
2022-10-28T00:07:07.051Z,1004.260254
2022-10-28T00:08:11.110Z,1004.234314
2022-10-28T00:09:12.282Z,1004.298279
2022-10-28T00:10:08.670Z,1004.201904
2022-10-28T00:11:08.856Z,1004.308838
2022-10-28T00:12:03.165Z,1004.284363
2022-10-28T00:13:02.988Z,1004.217346
2022-10-28T00:13:57.778Z,1004.219604
2022-10-28T00:14:58.996Z,1004.192871
2022-10-28T00:15:55.485Z,1004.222168
2022-10-28T00:16:55.655Z,1004.224426
2022-10-28T00:17:50.148Z,1004.136353
2022-10-28T00:18:54.002Z,1004.168762
2022-10-28T00:19:49.662Z,1004.190613
2022-10-28T00:20:51.847Z,1004.153259
2022-10-28T00:21:57.581Z,1004.214661
2022-10-28T00:23:01.926Z,1004.174377
2022-10-28T00:23:56.308Z,1004.160461
2022-10-28T00:25:00.093Z,1004.163025
2022-10-28T00:25:54.651Z,1004.165283
2022-10-28T00:26:54.315Z,1004.122437
2022-10-28T00:27:49.211Z,1004.125
2022-10-28T00:28:49.268Z,1004.178467
2022-10-28T00:29:44.482Z,1004.090027
2022-10-28T00:30:48.119Z,1004.055298
2022-10-28T00:31:45.159Z,1004.030945
2022-10-28T00:32:48.829Z,1004.076416
2022-10-28T00:33:41.343Z,1004.049683
2022-10-28T00:34:41.027Z,1004.022949
2022-10-28T00:35:39.317Z,1004.049683
2022-10-28T00:36:40.149Z,1004.033508
2022-10-28T00:37:35.453Z,1004.044067
2022-10-28T00:38:36.889Z,1004.070801
2022-10-28T00:39:29.498Z,1003.963928
2022-10-28T00:40:29.527Z,1003.996277
2022-10-28T00:41:31.342Z,1004.060181
2022-10-28T00:42:29.015Z,1003.982361
2022-10-28T00:43:31.216Z,1004.011658
2022-10-28T00:44:25.690Z,1003.984924
2022-10-28T00:47:05.995Z,1003.971802
2022-10-28T00:47:37.664Z,1003.935303
2022-10-28T00:48:35.738Z,1003.960632
2022-10-28T00:49:40.948Z,1003.957947
2022-10-28T00:50:39.935Z,1004.038208
2022-10-28T00:51:35.574Z,1003.979065
2022-10-28T00:52:38.251Z,1003.981689
2022-10-28T00:53:33.883Z,1003.94104
2022-10-28T00:54:36.309Z,1003.91687
2022-10-28T00:55:31.419Z,1003.91687
2022-10-28T00:56:31.027Z,1003.911255
2022-10-28T00:57:27.662Z,1003.886719
2022-10-28T00:58:29.700Z,1003.886719
2022-10-28T00:59:29.820Z,1004.004211
2022-10-28T01:00:30.427Z,1004.022949
2022-10-28T01:01:32.457Z,1003.918335
2022-10-28T01:02:35.442Z,1003.971802
2022-10-28T01:03:29.708Z,1003.907837
2022-10-28T01:04:30.378Z,1003.932251
2022-10-28T01:05:29.481Z,1003.956421
2022-10-28T01:06:34.347Z,1003.884521
2022-10-28T01:07:30.940Z,1003.852905
2022-10-28T01:08:32.258Z,1003.903748
2022-10-28T01:09:28.073Z,1003.949219
2022-10-28T01:16:16.126Z,1003.777161
2022-10-28T01:19:33.541Z,1003.827637
2022-10-28T01:21:20.043Z,1003.866699
2022-10-28T01:22:19.830Z,1003.916199
2022-10-28T01:23:16.379Z,1003.939087
2022-10-28T01:24:17.757Z,1003.889526
2022-10-28T01:25:11.921Z,1003.893433
2022-10-28T01:26:12.917Z,1003.978149
2022-10-28T01:27:13.028Z,1003.950134
2022-10-28T01:28:13.823Z,1004.02655
2022-10-28T01:29:07.958Z,1004.060608
2022-10-28T01:31:05.921Z,1003.989685
2022-10-28T01:32:05.603Z,1004.048096
2022-10-28T01:32:59.957Z,1004.021301
2022-10-28T01:33:55.934Z,1004.001892
2022-10-28T01:34:58.243Z,1003.899841
2022-10-28T01:36:46.545Z,1003.945313
2022-10-28T01:37:52.712Z,1004.033508
2022-10-28T01:38:46.889Z,1003.918579
2022-10-28T01:39:48.533Z,1003.966492
2022-10-28T01:40:42.771Z,1003.990601
2022-10-28T01:41:48.143Z,1003.937134
2022-10-28T01:42:38.587Z,1003.891846
2022-10-28T01:43:36.495Z,1003.830139
2022-10-28T01:44:33.952Z,1003.865173
2022-10-28T01:45:35.565Z,1003.83844
2022-10-28T01:46:29.935Z,1003.776733
2022-10-28T01:47:27.462Z,1003.811646
2022-10-28T01:48:21.804Z,1003.803467
2022-10-28T01:49:19.287Z,1003.694092
2022-10-28T01:51:07.355Z,1003.755554
2022-10-28T01:52:05.597Z,1003.801086
2022-10-28T01:52:59.894Z,1003.73938
2022-10-28T01:54:00.349Z,1003.704712
2022-10-28T01:54:54.811Z,1003.73938
2022-10-28T01:55:54.162Z,1003.640625
2022-10-28T01:56:46.694Z,1003.616272
2022-10-28T01:57:42.564Z,1003.589478
2022-10-28T01:58:42.600Z,1003.672363
2022-10-28T02:00:27.578Z,1003.84967
2022-10-28T02:01:08.494Z,1003.812988
2022-10-28T02:02:09.703Z,1003.746277
2022-10-28T02:03:07.209Z,1003.772949
2022-10-28T02:04:06.259Z,1003.751221
2022-10-28T02:05:00.816Z,1003.799072
2022-10-28T02:06:00.317Z,1003.732056
2022-10-28T02:06:59.934Z,1003.755554
2022-10-28T02:07:54.275Z,1003.707031
2022-10-28T02:08:55.739Z,1003.728149
2022-10-28T02:09:50.287Z,1003.685181
2022-10-28T02:11:48.507Z,1003.714539
2022-10-28T02:12:51.546Z,1003.679504
2022-10-28T02:13:43.323Z,1003.661072
2022-10-28T02:14:42.381Z,1003.642273
2022-10-28T02:15:37.421Z,1003.711853
2022-10-28T02:16:42.119Z,1003.725159
2022-10-28T02:17:39.484Z,1003.725159
2022-10-28T02:18:38.824Z,1003.66333
2022-10-28T02:19:39.306Z,1003.69281
2022-10-28T02:20:34.645Z,1003.743591
2022-10-28T02:21:36.585Z,1003.652161
2022-10-28T02:22:28.759Z,1003.668274
2022-10-28T02:23:31.728Z,1003.684509
2022-10-28T02:24:31.226Z,1003.727417
2022-10-28T02:25:30.466Z,1003.655457
2022-10-28T02:26:27.618Z,1003.671631
2022-10-28T02:27:29.166Z,1003.735596
2022-10-28T02:28:24.439Z,1003.628723
2022-10-28T02:29:30.116Z,1003.666016
2022-10-28T02:30:23.506Z,1003.68219
2022-10-28T02:31:23.981Z,1003.708923
2022-10-28T02:32:18.661Z,1003.666016
2022-10-28T02:33:22.721Z,1003.711243
2022-10-28T02:34:17.370Z,1003.748596
2022-10-28T02:36:43.564Z,1003.644226
2022-10-28T02:37:22.366Z,1003.649841
2022-10-28T02:38:21.543Z,1003.615479
2022-10-28T02:39:22.411Z,1003.586426
2022-10-28T02:40:17.833Z,1003.644836
2022-10-28T02:41:18.684Z,1003.529663
2022-10-28T02:42:15.138Z,1003.540222
2022-10-28T02:43:15.798Z,1003.532349
2022-10-28T02:44:17.665Z,1003.547791
2022-10-28T02:45:17.787Z,1003.457031
2022-10-28T02:46:19.901Z,1003.512817
2022-10-28T02:47:17.244Z,1003.515442
2022-10-28T02:48:18.278Z,1003.585144
2022-10-28T02:49:22.210Z,1003.573914
2022-10-28T02:50:27.444Z,1003.581787
2022-10-28T02:51:26.182Z,1003.576172
2022-10-28T02:52:29.212Z,1003.538879
2022-10-28T02:54:26.549Z,1003.495911
2022-10-28T02:56:33.473Z,1003.455078
2022-10-28T02:57:27.518Z,1003.514832
2022-10-28T02:58:32.335Z,1003.421692
2022-10-28T02:59:25.810Z,1003.4646
2022-10-28T03:00:27.567Z,1003.456421
2022-10-28T03:01:22.106Z,1003.459045
2022-10-28T03:02:20.585Z,1003.357056
2022-10-28T03:03:22.467Z,1003.407166
2022-10-28T03:04:17.917Z,1003.417786
2022-10-28T03:05:20.695Z,1003.404236
2022-10-28T03:06:15.600Z,1003.361267
2022-10-28T03:07:19.158Z,1003.363586
2022-10-28T03:08:13.413Z,1003.371887
2022-10-28T03:09:13.588Z,1003.369202
2022-10-28T03:10:11.588Z,1003.379822
2022-10-28T03:11:11.809Z,1003.363586
2022-10-28T03:12:07.254Z,1003.430298
2022-10-28T03:13:08.877Z,1003.424683
2022-10-28T03:14:14.618Z,1003.365601
2022-10-28T03:15:07.971Z,1003.333252
2022-10-28T03:16:06.092Z,1003.330627
2022-10-28T03:17:08.010Z,1003.427002
2022-10-28T03:18:01.031Z,1003.330627
2022-10-28T03:19:00.958Z,1003.392334
2022-10-28T03:19:57.659Z,1003.370483
2022-10-28T03:21:59.668Z,1003.334839
2022-10-28T03:23:01.770Z,1003.353699
2022-10-28T03:23:59.815Z,1003.366577
2022-10-28T03:25:00.728Z,1003.315674
2022-10-28T03:27:00.795Z,1003.280701
2022-10-28T03:27:56.064Z,1003.30188
2022-10-28T03:28:57.688Z,1003.298767
2022-10-28T03:30:42.386Z,1003.366577
2022-10-28T03:31:22.621Z,1003.399597
2022-10-28T03:32:19.508Z,1003.351746
2022-10-28T03:33:22.131Z,1003.300964
2022-10-28T03:34:16.685Z,1003.367188
2022-10-28T03:35:16.009Z,1003.281433
2022-10-28T03:36:11.606Z,1003.284058
2022-10-28T03:37:11.165Z,1003.173767
2022-10-28T03:38:07.395Z,1003.149658
2022-10-28T03:39:06.258Z,1003.127808
2022-10-28T03:40:01.165Z,1003.085022
2022-10-28T03:41:01.333Z,1003.122253
2022-10-28T03:41:57.540Z,1003.151245
2022-10-28T03:42:58.658Z,1003.170105
2022-10-28T03:43:59.889Z,1003.14563
2022-10-28T03:44:56.711Z,1003.15625
2022-10-28T03:45:56.510Z,1003.158813
2022-10-28T03:46:53.033Z,1003.142639
2022-10-28T03:47:54.687Z,1003.161072
2022-10-28T03:48:49.259Z,1003.118286
2022-10-28T03:49:48.247Z,1003.198425
2022-10-28T03:50:44.716Z,1003.046326
2022-10-28T03:51:47.844Z,1003.102051
2022-10-28T03:52:43.169Z,1003.085876
2022-10-28T03:53:46.819Z,1002.987183
2022-10-28T03:54:44.086Z,1003.011353
2022-10-28T03:55:44.657Z,1003.027527
2022-10-28T03:56:40.334Z,1002.992798
2022-10-28T03:57:42.181Z,1003.019531
2022-10-28T03:58:37.283Z,1003.019531
2022-10-28T03:58:41.208Z,1003.019531
2022-10-28T03:59:37.805Z,1003.016968
2022-10-28T04:01:35.615Z,1003.023254
2022-10-28T04:02:28.395Z,1003.080017
2022-10-28T04:03:31.339Z,1003.07251
2022-10-28T04:04:33.023Z,1003.059631
2022-10-28T04:05:28.352Z,1003.024597
2022-10-28T04:06:27.629Z,1003.040161
2022-10-28T04:07:22.927Z,1003.034546
2022-10-28T04:08:23.484Z,1003.002197
2022-10-28T04:09:19.575Z,1002.996582
2022-10-28T04:10:18.861Z,1003.097839
2022-10-28T04:12:15.841Z,1003.006409
2022-10-28T04:13:17.422Z,1003.046326
2022-10-28T04:14:16.302Z,1003.110291
2022-10-28T04:15:18.968Z,1003.075317
2022-10-28T04:16:11.863Z,1002.987183
2022-10-28T04:17:17.375Z,1003.016235
2022-10-28T04:18:16.558Z,1003.080261
2022-10-28T04:19:19.799Z,1003.058411
2022-10-28T04:20:15.139Z,1003.061035
2022-10-28T04:22:03.645Z,1003.085876
2022-10-28T04:22:46.281Z,1003.075317
2022-10-28T04:23:54.083Z,1003.054199
2022-10-28T04:24:52.062Z,1003.091492
2022-10-28T04:25:51.043Z,1003.075317
2022-10-28T04:26:49.074Z,1003.085876
2022-10-28T04:27:49.378Z,1003.109558
2022-10-28T04:28:44.663Z,1003.026123
2022-10-28T04:29:45.199Z,1003.079529
2022-10-28T04:31:45.533Z,1003.119385
2022-10-28T04:32:39.967Z,1003.057678
2022-10-28T04:33:36.274Z,1003.090027
2022-10-28T04:34:34.727Z,1003.098267
2022-10-28T04:35:37.435Z,1003.092651
2022-10-28T04:36:29.496Z,1003.073914
2022-10-28T04:37:30.325Z,1003.020447
2022-10-28T04:38:30.326Z,1003.119385
2022-10-28T04:39:29.381Z,1002.958252
2022-10-28T04:40:25.508Z,1003.046387
2022-10-28T04:41:22.278Z,1003.065186
2022-10-28T04:42:22.683Z,1003.049072
2022-10-28T04:43:18.821Z,1003.049072
2022-10-28T04:44:17.117Z,1003.05127
2022-10-28T04:45:16.360Z,1003.160767
2022-10-28T04:46:11.232Z,1003.059509
2022-10-28T04:47:10.251Z,1003.088623
2022-10-28T04:48:06.578Z,1003.035156
2022-10-28T04:49:10.146Z,1003.117798
2022-10-28T04:50:11.935Z,1003.117798
2022-10-28T04:51:09.817Z,1003.05127
2022-10-28T04:52:09.785Z,1003.123535
2022-10-28T04:53:09.620Z,1003.123535
2022-10-28T04:54:06.157Z,1003.05127
2022-10-28T04:55:12.894Z,1003.077942
2022-10-28T04:56:09.299Z,1003.172058
2022-10-28T04:57:06.376Z,1003.102417
2022-10-28T04:58:10.867Z,1003.153259
2022-10-28T04:59:57.633Z,1003.167908
2022-10-28T05:00:37.533Z,1003.187195
2022-10-28T05:01:37.101Z,1003.208923
2022-10-28T05:02:37.172Z,1003.184814
2022-10-28T05:03:33.956Z,1003.149841
2022-10-28T05:04:35.263Z,1003.179199
2022-10-28T05:05:33.300Z,1003.130615
2022-10-28T05:06:34.689Z,1003.178467
2022-10-28T05:07:30.145Z,1003.215698
2022-10-28T05:08:31.434Z,1003.148438
2022-10-28T05:09:30.654Z,1003.16156
2022-10-28T05:11:26.677Z,1003.179993
2022-10-28T05:12:26.346Z,1003.118591
2022-10-28T05:13:21.585Z,1003.225464
2022-10-28T05:14:24.435Z,1003.190491
2022-10-28T05:15:19.646Z,1003.086243
2022-10-28T05:16:18.653Z,1003.137085
2022-10-28T05:17:17.527Z,1003.110413
2022-10-28T05:18:12.002Z,1003.110413
2022-10-28T05:19:13.039Z,1003.086243
2022-10-28T05:20:08.122Z,1003.139709
2022-10-28T05:21:12.845Z,1003.147644
2022-10-28T05:22:04.599Z,1003.112976
2022-10-28T05:23:05.851Z,1003.123535
2022-10-28T05:24:04.993Z,1003.139709
2022-10-28T05:25:07.027Z,1003.158142
2022-10-28T05:26:08.442Z,1003.195496
2022-10-28T05:27:12.315Z,1003.195496
2022-10-28T05:28:14.112Z,1003.125793
2022-10-28T05:29:14.144Z,1003.160767
2022-10-28T05:30:18.329Z,1003.134033
2022-10-28T05:31:12.786Z,1003.160767
2022-10-28T05:32:12.403Z,1003.229309
2022-10-28T05:33:11.175Z,1003.239868
2022-10-28T05:34:07.666Z,1003.14093
2022-10-28T05:35:52.486Z,1003.132996
2022-10-28T05:36:13.857Z,1003.107361
2022-10-28T05:37:15.255Z,1003.205139
2022-10-28T05:38:14.394Z,1003.130615
2022-10-28T05:39:16.767Z,1003.151733
2022-10-28T05:40:15.806Z,1003.135559
2022-10-28T05:41:13.954Z,1003.234192
2022-10-28T05:42:15.662Z,1003.25531
2022-10-28T05:43:11.135Z,1003.260925
2022-10-28T05:44:16.490Z,1003.210083
2022-10-28T05:45:11.904Z,1003.276306
2022-10-28T05:47:10.080Z,1003.142029
2022-10-28T05:48:09.277Z,1003.222107
2022-10-28T05:49:11.195Z,1003.160767
2022-10-28T05:50:20.163Z,1003.192017
2022-10-28T05:51:13.184Z,1003.200012
2022-10-28T05:52:16.633Z,1003.124695
2022-10-28T05:53:16.641Z,1003.18866
2022-10-28T05:54:13.168Z,1003.100647
2022-10-28T05:55:13.373Z,1003.172485
2022-10-28T05:56:11.527Z,1003.055176
2022-10-28T05:57:12.594Z,1003.073914
2022-10-28T05:58:18.426Z,1003.102905
2022-10-28T05:59:17.346Z,1003.113464
2022-10-28T06:00:17.651Z,1003.148438
2022-10-28T06:01:17.062Z,1003.179993
2022-10-28T06:02:16.979Z,1003.118286
2022-10-28T06:03:17.250Z,1003.163757
2022-10-28T06:04:12.732Z,1003.163757
2022-10-28T06:05:13.421Z,1003.179993
2022-10-28T06:06:11.708Z,1003.126587
2022-10-28T06:07:17.246Z,1003.177368
2022-10-28T06:08:09.866Z,1003.140137
2022-10-28T06:09:19.549Z,1003.263123
2022-10-28T06:10:18.365Z,1003.246948
2022-10-28T06:11:19.902Z,1003.185608
2022-10-28T06:12:16.230Z,1003.179993
2022-10-28T06:13:21.372Z,1003.321411
2022-10-28T06:14:14.619Z,1003.212341
2022-10-28T06:15:16.924Z,1003.27063
2022-10-28T06:17:23.156Z,1003.2146
2022-10-28T06:19:03.411Z,1003.206726
2022-10-28T06:19:32.808Z,1003.213135
2022-10-28T06:21:31.266Z,1003.241699
2022-10-28T06:22:26.221Z,1003.153259
2022-10-28T06:23:27.762Z,1003.236023
2022-10-28T06:24:25.776Z,1003.158142
2022-10-28T06:25:24.551Z,1003.184814
2022-10-28T06:27:22.711Z,1003.146545
2022-10-28T06:28:19.997Z,1003.301147
2022-10-28T06:29:24.794Z,1003.196899
2022-10-28T06:30:20.900Z,1003.239868
2022-10-28T06:32:18.139Z,1003.196899
2022-10-28T06:33:20.667Z,1003.322205
2022-10-28T06:34:15.908Z,1003.295532
2022-10-28T06:35:20.028Z,1003.293274
2022-10-28T06:36:12.799Z,1003.245483
2022-10-28T06:37:16.139Z,1003.309448
2022-10-28T06:38:09.734Z,1003.354614
2022-10-28T06:39:09.352Z,1003.301147
2022-10-28T06:40:07.394Z,1003.370789
2022-10-28T06:41:11.954Z,1003.344055
2022-10-28T06:42:12.033Z,1003.33844
2022-10-28T06:43:13.939Z,1003.234192
2022-10-28T06:44:09.397Z,1003.293274
2022-10-28T06:45:13.914Z,1003.239868
2022-10-28T06:47:09.102Z,1003.328979
2022-10-28T06:48:05.763Z,1003.328979
2022-10-28T06:49:07.031Z,1003.328979
2022-10-28T06:50:02.758Z,1003.401978
2022-10-28T06:51:10.003Z,1003.401978
2022-10-28T06:52:05.233Z,1003.377502
2022-10-28T06:53:04.980Z,1003.444092
2022-10-28T06:54:00.548Z,1003.40686
2022-10-28T06:55:00.940Z,1003.417358
2022-10-28T06:55:58.923Z,1003.524231
2022-10-28T06:57:00.498Z,1003.524231
2022-10-28T06:57:56.257Z,1003.542664
2022-10-28T06:58:57.359Z,1003.537048
2022-10-28T06:59:53.725Z,1003.473145
2022-10-28T07:00:57.010Z,1003.446411
2022-10-28T07:01:54.774Z,1003.499817
2022-10-28T07:02:58.196Z,1003.435852
2022-10-28T07:03:53.504Z,1003.45459
2022-10-28T07:05:01.967Z,1003.470764
2022-10-28T07:05:57.377Z,1003.444092
2022-10-28T07:06:59.577Z,1003.470764
2022-10-28T07:07:53.065Z,1003.524231
2022-10-28T07:08:55.862Z,1003.532166
2022-10-28T07:09:48.549Z,1003.542664
2022-10-28T07:10:48.205Z,1003.521729
2022-10-28T07:11:43.893Z,1003.585632
2022-10-28T07:12:46.060Z,1003.577637
2022-10-28T07:13:49.131Z,1003.542664
2022-10-28T07:15:22.186Z,1003.502197
2022-10-28T07:17:51.550Z,1003.514832
2022-10-28T07:18:29.598Z,1003.491394
2022-10-28T07:19:29.681Z,1003.499268
2022-10-28T07:20:23.093Z,1003.501221
2022-10-28T07:21:22.047Z,1003.518433
2022-10-28T07:22:21.453Z,1003.571228
2022-10-28T07:22:25.740Z,1003.571228
2022-10-28T07:23:18.605Z,1003.594971
2022-10-28T07:24:18.927Z,1003.645142
2022-10-28T07:25:19.363Z,1003.593567
2022-10-28T07:26:13.264Z,1003.590149
2022-10-28T07:27:15.261Z,1003.630066
2022-10-28T07:28:08.713Z,1003.669678
2022-10-28T07:29:08.136Z,1003.610535
2022-10-28T07:30:03.394Z,1003.711792
2022-10-28T07:32:04.995Z,1003.743408
2022-10-28T07:33:03.195Z,1003.698181
2022-10-28T07:33:57.343Z,1003.716736
2022-10-28T07:34:54.030Z,1003.63092
2022-10-28T07:36:50.514Z,1003.660156
2022-10-28T07:37:52.101Z,1003.641418
2022-10-28T07:38:44.754Z,1003.676392
2022-10-28T07:39:43.306Z,1003.737793
2022-10-28T07:40:42.410Z,1003.729858
2022-10-28T07:41:34.143Z,1003.719299
2022-10-28T07:42:32.167Z,1003.690002
2022-10-28T07:43:26.440Z,1003.805176
2022-10-28T07:44:23.867Z,1003.778442
2022-10-28T07:45:18.047Z,1003.566895
2022-10-28T07:46:18.840Z,1003.679382
2022-10-28T07:47:11.275Z,1003.687683
2022-10-28T07:48:11.952Z,1003.730652
2022-10-28T07:49:06.847Z,1003.625916
2022-10-28T07:50:05.038Z,1003.668884
2022-10-28T07:50:59.373Z,1003.711792
2022-10-28T07:51:55.541Z,1003.677185
2022-10-28T07:52:57.009Z,1003.623779
2022-10-28T07:53:50.765Z,1003.695618
2022-10-28T07:54:52.359Z,1003.623779
2022-10-28T07:56:45.350Z,1003.744202
2022-10-28T07:57:36.980Z,1003.762939
2022-10-28T07:58:38.453Z,1003.725708
2022-10-28T07:59:29.502Z,1003.733582
2022-10-28T08:00:25.669Z,1003.690796
2022-10-28T08:02:19.709Z,1003.637329
2022-10-28T08:03:57.249Z,1003.671875
2022-10-28T08:05:19.928Z,1003.640625
2022-10-28T08:06:00.251Z,1003.641846
2022-10-28T08:07:03.218Z,1003.754517
2022-10-28T08:08:01.477Z,1003.743286
2022-10-28T08:08:55.763Z,1003.715942
2022-10-28T08:09:54.939Z,1003.699036
2022-10-28T08:11:46.332Z,1003.77594
2022-10-28T08:12:44.865Z,1003.661072
2022-10-28T08:13:40.534Z,1003.772949
2022-10-28T08:14:40.386Z,1003.794067
2022-10-28T08:15:34.630Z,1003.815186
2022-10-28T08:17:28.104Z,1003.866089
2022-10-28T08:18:28.113Z,1003.825806
2022-10-28T08:19:22.878Z,1003.905945
2022-10-28T08:20:24.316Z,1003.892029
2022-10-28T08:21:17.806Z,1003.929382
2022-10-28T08:22:16.892Z,1003.867981
2022-10-28T08:23:11.055Z,1003.950439
2022-10-28T08:24:10.686Z,1003.872803
2022-10-28T08:25:10.047Z,1003.864685
2022-10-28T08:26:11.668Z,1003.93689
2022-10-28T08:27:03.787Z,1003.901855
2022-10-28T08:28:03.324Z,1003.877808
2022-10-28T08:29:00.862Z,1003.889038
2022-10-28T08:29:59.238Z,1003.884155
2022-10-28T08:31:08.203Z,1003.838623
2022-10-28T08:31:08.248Z,1003.838623
2022-10-28T08:31:08.674Z,1003.838623
2022-10-28T08:31:53.349Z,1003.858154
2022-10-28T08:32:50.442Z,1003.805298
2022-10-28T08:33:47.149Z,1003.813293
2022-10-28T08:34:45.370Z,1003.762451
2022-10-28T08:35:42.495Z,1003.77533
2022-10-28T08:36:41.041Z,1003.820801
2022-10-28T08:37:34.884Z,1003.761719
2022-10-28T08:38:34.507Z,1003.772278
2022-10-28T08:39:28.040Z,1003.726746
2022-10-28T08:40:27.160Z,1003.702637
2022-10-28T08:41:24.502Z,1003.764038
2022-10-28T08:42:22.556Z,1003.758423
2022-10-28T08:43:20.721Z,1003.704895
2022-10-28T08:43:34.984Z,1003.704895
2022-10-28T08:43:40.322Z,1003.704895
2022-10-28T08:44:17.996Z,1003.657043
2022-10-28T08:45:15.450Z,1003.657837
2022-10-28T08:46:13.017Z,1003.650452
2022-10-28T08:47:07.150Z,1003.567627
2022-10-28T08:48:10.040Z,1003.621094
2022-10-28T08:49:01.809Z,1003.559692
2022-10-28T08:50:02.883Z,1003.647888
2022-10-28T08:50:55.261Z,1003.626709
2022-10-28T08:51:56.584Z,1003.645569
2022-10-28T08:52:50.186Z,1003.562683
2022-10-28T08:53:51.249Z,1003.570923
2022-10-28T08:54:43.008Z,1003.578918
2022-10-28T08:55:39.196Z,1003.578918
2022-10-28T08:58:42.913Z,1003.572815
2022-10-28T08:59:22.926Z,1003.542053
2022-10-28T09:00:23.459Z,1003.606689
2022-10-28T09:01:19.060Z,1003.598511
2022-10-28T09:02:18.270Z,1003.681396
2022-10-28T09:03:12.583Z,1003.632568
2022-10-28T09:04:12.146Z,1003.616394
2022-10-28T09:05:06.545Z,1003.643127
2022-10-28T09:06:09.503Z,1003.60022
2022-10-28T09:07:02.944Z,1003.522339
2022-10-28T09:08:02.933Z,1003.557373
2022-10-28T09:08:59.475Z,1003.557373
2022-10-28T09:09:59.170Z,1003.557373
2022-10-28T09:10:53.187Z,1003.621399
2022-10-28T09:11:55.173Z,1003.618774
2022-10-28T09:12:49.946Z,1003.610779
2022-10-28T09:13:50.441Z,1003.538452
2022-10-28T09:14:46.083Z,1003.573425
2022-10-28T09:15:48.119Z,1003.527954
2022-10-28T09:17:41.876Z,1003.582336
2022-10-28T09:18:33.897Z,1003.544983
2022-10-28T09:19:32.707Z,1003.566711
2022-10-28T09:20:28.292Z,1003.582886
2022-10-28T09:21:27.237Z,1003.543274
2022-10-28T09:22:23.085Z,1003.556702
2022-10-28T09:23:25.464Z,1003.565002
2022-10-28T09:24:17.755Z,1003.567993
2022-10-28T09:25:16.396Z,1003.482666
2022-10-28T09:27:12.961Z,1003.509949
2022-10-28T09:28:06.210Z,1003.542236
2022-10-28T09:30:00.529Z,1003.505493
2022-10-28T09:31:05.507Z,1003.497986
2022-10-28T09:31:58.775Z,1003.511536
2022-10-28T09:32:33.302Z,1003.509155
2022-10-28T09:33:26.632Z,1003.549377
2022-10-28T09:34:28.376Z,1003.445496
2022-10-28T09:35:23.566Z,1003.515259
2022-10-28T09:36:23.985Z,1003.549866
2022-10-28T09:37:22.177Z,1003.496399
2022-10-28T09:38:20.625Z,1003.536865
2022-10-28T09:39:25.335Z,1003.493958
2022-10-28T09:39:27.774Z,1003.493958
2022-10-28T09:43:31.971Z,1003.505798
2022-10-28T09:44:04.162Z,1003.493103
2022-10-28T09:45:04.092Z,1003.485291
2022-10-28T09:46:57.851Z,1003.495911
2022-10-28T09:47:59.122Z,1003.439514
2022-10-28T09:48:53.594Z,1003.434082
2022-10-28T09:49:53.021Z,1003.372192
2022-10-28T09:50:47.790Z,1003.428528
2022-10-28T09:52:43.585Z,1003.447021
2022-10-28T09:53:42.069Z,1003.484558
2022-10-28T09:54:37.325Z,1003.482056
2022-10-28T09:55:36.946Z,1003.487671
2022-10-28T09:57:32.916Z,1003.479675
2022-10-28T09:58:27.411Z,1003.471863
2022-10-28T09:59:29.756Z,1003.445007
2022-10-28T10:00:21.736Z,1003.533386
2022-10-28T10:02:18.117Z,1003.547119
2022-10-28T10:03:12.718Z,1003.528198
2022-10-28T10:04:14.490Z,1003.563293
2022-10-28T10:05:14.611Z,1003.533752
2022-10-28T10:05:17.003Z,1003.533752
2022-10-28T10:06:12.901Z,1003.558105
2022-10-28T10:07:08.252Z,1003.660156
2022-10-28T10:08:07.303Z,1003.635803
2022-10-28T10:09:01.745Z,1003.689392
2022-10-28T10:10:05.420Z,1003.697632
2022-10-28T10:10:58.030Z,1003.692505
2022-10-28T10:12:00.722Z,1003.644348
2022-10-28T10:12:56.124Z,1003.687317
2022-10-28T10:13:54.986Z,1003.641663
2022-10-28T10:14:54.112Z,1003.585632
2022-10-28T10:15:52.607Z,1003.677002
2022-10-28T10:17:50.741Z,1003.626587
2022-10-28T10:18:46.929Z,1003.597046
2022-10-28T10:19:50.564Z,1003.597046
2022-10-28T10:22:26.875Z,1003.638733
2022-10-28T10:23:20.467Z,1003.644348
2022-10-28T10:24:21.015Z,1003.649841
2022-10-28T10:25:17.178Z,1003.598755
2022-10-28T11:05:35.745Z,1003.340637
2022-10-28T11:05:38.203Z,1003.340637
2022-10-28T14:55:19.520Z,1003.591553
2022-10-28T15:29:05.127Z,1003.887329
2022-10-28T15:29:24.907Z,1003.861694
2022-10-28T15:30:25.018Z,1003.930542
2022-10-28T15:31:29.415Z,1003.937744
2022-10-28T15:32:23.931Z,1003.895447
2022-10-28T15:33:25.393Z,1003.925476
2022-10-28T15:34:19.704Z,1003.932007
2022-10-28T15:35:28.216Z,1004.021179
2022-10-28T15:38:13.546Z,1004.059082
2022-10-28T15:38:30.048Z,1004.05658
2022-10-28T15:39:29.202Z,1003.989197
2022-10-28T18:37:03.294Z,1005.382507
2022-10-28T18:37:41.858Z,1005.495483
2022-10-28T18:38:38.574Z,1005.557007
2022-10-28T18:39:36.089Z,1005.548279
2022-10-28T18:40:28.700Z,1005.563538
2022-10-28T18:41:31.762Z,1005.588745
2022-10-28T18:43:21.052Z,1005.570129
2022-10-28T18:44:15.510Z,1005.590332
2022-10-28T18:45:22.262Z,1005.602173
2022-10-28T18:46:15.651Z,1005.619385
2022-10-28T18:47:14.607Z,1005.545776
2022-10-28T18:48:10.846Z,1005.654663
2022-10-28T18:49:07.034Z,1005.632324
2022-10-28T18:50:00.419Z,1005.604553
2022-10-28T18:51:01.336Z,1005.646301
2022-10-28T18:51:51.838Z,1005.586243
2022-10-28T18:52:48.213Z,1005.596252
2022-10-28T18:53:43.348Z,1005.65155
2022-10-28T18:54:38.673Z,1005.66156
2022-10-28T18:55:30.580Z,1005.741272
2022-10-28T18:56:28.713Z,1005.687012
2022-10-28T18:58:25.780Z,1005.706787
2022-10-28T18:59:14.627Z,1005.773499
2022-10-28T19:00:18.004Z,1005.719238
2022-10-28T19:00:19.559Z,1005.719238
2022-10-28T19:01:05.428Z,1005.796265
2022-10-28T19:03:03.972Z,1005.788269
2022-10-28T19:03:53.315Z,1005.667358
2022-10-28T19:04:49.856Z,1005.814392
2022-10-28T19:05:41.342Z,1005.706543
2022-10-28T19:06:41.562Z,1005.775574
2022-10-28T19:07:36.629Z,1005.798889
2022-10-28T19:08:40.539Z,1005.787598
2022-10-28T19:09:33.280Z,1005.795105
2022-10-28T19:10:27.470Z,1005.764709
2022-10-28T19:11:23.888Z,1005.841858
2022-10-28T19:12:16.869Z,1005.836182
2022-10-28T19:13:16.961Z,1005.824829
2022-10-28T19:14:09.076Z,1005.917786
2022-10-28T19:15:04.705Z,1005.91217
2022-10-28T19:16:02.918Z,1005.89032